<?xml version="1.0" encoding="UTF-8" standalone="no" ?>
<gpx xmlns="http://www.topografix.com/GPX/1/1" xmlns:xsi="http://www.w3.org/2001/XMLSchema-instance" xsi:schemaLocation="http://www.topografix.com/GPX/1/1 http://www.topografix.com/GPX/1/1/gpx.xsd" version="1.1" creator="VisuGPX - https://www.visugpx.com">
  <metadata>
    <name>Sainte-Baume Pic de Bertagne depuis Cuges-les-Pins</name>
    <desc><![CDATA[Sainte-Baume Pic de Bertagne depuis Cuges-les-Pins
Boucle par la crête de la Sainte-Baume]]></desc>
  </metadata>
  <trk>
    <name><![CDATA[Tracé actuel: 11 NOV 2016 11:05]]></name>
    <trkseg>
      <trkpt lat="43.27967" lon="5.70414">
        <ele>237.1</ele>
        <time>2016-11-11T10:08:14Z</time>
      </trkpt>
      <trkpt lat="43.27981" lon="5.70429">
        <ele>226.05</ele>
        <time>2016-11-11T10:11:12Z</time>
      </trkpt>
      <trkpt lat="43.28003" lon="5.70456">
        <ele>227.97</ele>
        <time>2016-11-11T10:11:39Z</time>
      </trkpt>
      <trkpt lat="43.28028" lon="5.70484">
        <ele>230.85</ele>
        <time>2016-11-11T10:12:09Z</time>
      </trkpt>
      <trkpt lat="43.28058" lon="5.70516">
        <ele>235.18</ele>
        <time>2016-11-11T10:12:49Z</time>
      </trkpt>
      <trkpt lat="43.28081" lon="5.70541">
        <ele>238.06</ele>
        <time>2016-11-11T10:13:17Z</time>
      </trkpt>
      <trkpt lat="43.281" lon="5.70563">
        <ele>245.27</ele>
        <time>2016-11-11T10:13:42Z</time>
      </trkpt>
      <trkpt lat="43.28119" lon="5.70587">
        <ele>238.54</ele>
        <time>2016-11-11T10:14:02Z</time>
      </trkpt>
      <trkpt lat="43.2813" lon="5.70613">
        <ele>238.06</ele>
        <time>2016-11-11T10:15:00Z</time>
      </trkpt>
      <trkpt lat="43.28153" lon="5.70637">
        <ele>241.43</ele>
        <time>2016-11-11T10:15:29Z</time>
      </trkpt>
      <trkpt lat="43.28176" lon="5.70669">
        <ele>248.64</ele>
        <time>2016-11-11T10:15:59Z</time>
      </trkpt>
      <trkpt lat="43.28199" lon="5.70698">
        <ele>253.44</ele>
        <time>2016-11-11T10:16:30Z</time>
      </trkpt>
      <trkpt lat="43.28219" lon="5.7073">
        <ele>256.33</ele>
        <time>2016-11-11T10:17:00Z</time>
      </trkpt>
      <trkpt lat="43.28239" lon="5.70755">
        <ele>259.21</ele>
        <time>2016-11-11T10:17:24Z</time>
      </trkpt>
      <trkpt lat="43.28264" lon="5.70793">
        <ele>256.81</ele>
        <time>2016-11-11T10:17:52Z</time>
      </trkpt>
      <trkpt lat="43.28294" lon="5.70831">
        <ele>252.96</ele>
        <time>2016-11-11T10:18:34Z</time>
      </trkpt>
      <trkpt lat="43.28313" lon="5.7085">
        <ele>258.73</ele>
        <time>2016-11-11T10:18:54Z</time>
      </trkpt>
      <trkpt lat="43.28337" lon="5.70879">
        <ele>260.65</ele>
        <time>2016-11-11T10:19:22Z</time>
      </trkpt>
      <trkpt lat="43.28365" lon="5.70918">
        <ele>263.06</ele>
        <time>2016-11-11T10:19:54Z</time>
      </trkpt>
      <trkpt lat="43.28393" lon="5.7094">
        <ele>264.98</ele>
        <time>2016-11-11T10:20:23Z</time>
      </trkpt>
      <trkpt lat="43.28419" lon="5.70958">
        <ele>269.31</ele>
        <time>2016-11-11T10:20:50Z</time>
      </trkpt>
      <trkpt lat="43.28447" lon="5.70985">
        <ele>268.35</ele>
        <time>2016-11-11T10:21:18Z</time>
      </trkpt>
      <trkpt lat="43.2847" lon="5.70997">
        <ele>274.11</ele>
        <time>2016-11-11T10:21:43Z</time>
      </trkpt>
      <trkpt lat="43.28494" lon="5.71016">
        <ele>275.07</ele>
        <time>2016-11-11T10:22:11Z</time>
      </trkpt>
      <trkpt lat="43.28523" lon="5.71036">
        <ele>276.52</ele>
        <time>2016-11-11T10:22:40Z</time>
      </trkpt>
      <trkpt lat="43.28552" lon="5.71042">
        <ele>278.44</ele>
        <time>2016-11-11T10:23:07Z</time>
      </trkpt>
      <trkpt lat="43.28586" lon="5.71051">
        <ele>277</ele>
        <time>2016-11-11T10:23:42Z</time>
      </trkpt>
      <trkpt lat="43.2861" lon="5.7103">
        <ele>280.36</ele>
        <time>2016-11-11T10:24:20Z</time>
      </trkpt>
      <trkpt lat="43.28625" lon="5.7101">
        <ele>278.44</ele>
        <time>2016-11-11T10:24:45Z</time>
      </trkpt>
      <trkpt lat="43.2865" lon="5.71008">
        <ele>281.32</ele>
        <time>2016-11-11T10:25:11Z</time>
      </trkpt>
      <trkpt lat="43.28673" lon="5.71011">
        <ele>285.65</ele>
        <time>2016-11-11T10:25:36Z</time>
      </trkpt>
      <trkpt lat="43.28695" lon="5.71019">
        <ele>289.97</ele>
        <time>2016-11-11T10:26:09Z</time>
      </trkpt>
      <trkpt lat="43.28728" lon="5.71017">
        <ele>289.97</ele>
        <time>2016-11-11T10:26:51Z</time>
      </trkpt>
      <trkpt lat="43.2876" lon="5.71003">
        <ele>296.22</ele>
        <time>2016-11-11T10:27:26Z</time>
      </trkpt>
      <trkpt lat="43.28783" lon="5.70999">
        <ele>295.26</ele>
        <time>2016-11-11T10:27:56Z</time>
      </trkpt>
      <trkpt lat="43.28798" lon="5.70997">
        <ele>295.74</ele>
        <time>2016-11-11T10:29:32Z</time>
      </trkpt>
      <trkpt lat="43.2882" lon="5.71008">
        <ele>306.32</ele>
        <time>2016-11-11T10:29:58Z</time>
      </trkpt>
      <trkpt lat="43.28843" lon="5.71005">
        <ele>320.74</ele>
        <time>2016-11-11T10:30:26Z</time>
      </trkpt>
      <trkpt lat="43.28875" lon="5.71006">
        <ele>335.64</ele>
        <time>2016-11-11T10:31:06Z</time>
      </trkpt>
      <trkpt lat="43.28906" lon="5.71003">
        <ele>333.23</ele>
        <time>2016-11-11T10:31:43Z</time>
      </trkpt>
      <trkpt lat="43.28938" lon="5.70986">
        <ele>328.43</ele>
        <time>2016-11-11T10:32:18Z</time>
      </trkpt>
      <trkpt lat="43.28959" lon="5.70973">
        <ele>331.31</ele>
        <time>2016-11-11T10:32:43Z</time>
      </trkpt>
      <trkpt lat="43.2899" lon="5.70971">
        <ele>333.23</ele>
        <time>2016-11-11T10:33:21Z</time>
      </trkpt>
      <trkpt lat="43.29021" lon="5.7097">
        <ele>338.52</ele>
        <time>2016-11-11T10:33:58Z</time>
      </trkpt>
      <trkpt lat="43.29048" lon="5.70974">
        <ele>335.16</ele>
        <time>2016-11-11T10:34:35Z</time>
      </trkpt>
      <trkpt lat="43.29079" lon="5.70986">
        <ele>339.96</ele>
        <time>2016-11-11T10:35:09Z</time>
      </trkpt>
      <trkpt lat="43.29103" lon="5.70983">
        <ele>343.33</ele>
        <time>2016-11-11T10:35:37Z</time>
      </trkpt>
      <trkpt lat="43.29134" lon="5.7097">
        <ele>341.41</ele>
        <time>2016-11-11T10:36:14Z</time>
      </trkpt>
      <trkpt lat="43.29155" lon="5.7095">
        <ele>342.37</ele>
        <time>2016-11-11T10:36:41Z</time>
      </trkpt>
      <trkpt lat="43.29173" lon="5.70961">
        <ele>342.85</ele>
        <time>2016-11-11T10:37:16Z</time>
      </trkpt>
      <trkpt lat="43.29154" lon="5.70986">
        <ele>348.13</ele>
        <time>2016-11-11T10:38:03Z</time>
      </trkpt>
      <trkpt lat="43.29137" lon="5.71015">
        <ele>351.98</ele>
        <time>2016-11-11T10:38:43Z</time>
      </trkpt>
      <trkpt lat="43.29113" lon="5.71032">
        <ele>358.71</ele>
        <time>2016-11-11T10:39:21Z</time>
      </trkpt>
      <trkpt lat="43.29091" lon="5.71045">
        <ele>364.96</ele>
        <time>2016-11-11T10:39:59Z</time>
      </trkpt>
      <trkpt lat="43.29061" lon="5.71053">
        <ele>372.65</ele>
        <time>2016-11-11T10:40:50Z</time>
      </trkpt>
      <trkpt lat="43.29036" lon="5.71071">
        <ele>379.38</ele>
        <time>2016-11-11T10:41:30Z</time>
      </trkpt>
      <trkpt lat="43.29014" lon="5.71097">
        <ele>384.18</ele>
        <time>2016-11-11T10:42:06Z</time>
      </trkpt>
      <trkpt lat="43.29004" lon="5.71139">
        <ele>387.55</ele>
        <time>2016-11-11T10:42:44Z</time>
      </trkpt>
      <trkpt lat="43.28987" lon="5.71176">
        <ele>391.87</ele>
        <time>2016-11-11T10:43:23Z</time>
      </trkpt>
      <trkpt lat="43.28991" lon="5.7119">
        <ele>394.76</ele>
        <time>2016-11-11T10:44:11Z</time>
      </trkpt>
      <trkpt lat="43.29014" lon="5.71173">
        <ele>404.85</ele>
        <time>2016-11-11T10:45:09Z</time>
      </trkpt>
      <trkpt lat="43.29037" lon="5.71163">
        <ele>412.06</ele>
        <time>2016-11-11T10:45:45Z</time>
      </trkpt>
      <trkpt lat="43.29062" lon="5.71156">
        <ele>417.35</ele>
        <time>2016-11-11T10:46:23Z</time>
      </trkpt>
      <trkpt lat="43.29091" lon="5.71156">
        <ele>420.71</ele>
        <time>2016-11-11T10:46:58Z</time>
      </trkpt>
      <trkpt lat="43.29114" lon="5.71163">
        <ele>424.08</ele>
        <time>2016-11-11T10:47:35Z</time>
      </trkpt>
      <trkpt lat="43.29135" lon="5.71183">
        <ele>430.33</ele>
        <time>2016-11-11T10:48:23Z</time>
      </trkpt>
      <trkpt lat="43.29156" lon="5.71193">
        <ele>435.13</ele>
        <time>2016-11-11T10:48:51Z</time>
      </trkpt>
      <trkpt lat="43.29185" lon="5.71176">
        <ele>442.82</ele>
        <time>2016-11-11T10:49:31Z</time>
      </trkpt>
      <trkpt lat="43.29216" lon="5.71166">
        <ele>443.79</ele>
        <time>2016-11-11T10:50:12Z</time>
      </trkpt>
      <trkpt lat="43.29241" lon="5.7115">
        <ele>446.19</ele>
        <time>2016-11-11T10:50:40Z</time>
      </trkpt>
      <trkpt lat="43.29274" lon="5.71166">
        <ele>451.48</ele>
        <time>2016-11-11T10:51:22Z</time>
      </trkpt>
      <trkpt lat="43.29296" lon="5.71177">
        <ele>457.24</ele>
        <time>2016-11-11T10:51:47Z</time>
      </trkpt>
      <trkpt lat="43.29321" lon="5.71182">
        <ele>457.72</ele>
        <time>2016-11-11T10:52:15Z</time>
      </trkpt>
      <trkpt lat="43.2934" lon="5.71162">
        <ele>459.65</ele>
        <time>2016-11-11T10:52:40Z</time>
      </trkpt>
      <trkpt lat="43.29355" lon="5.71134">
        <ele>463.01</ele>
        <time>2016-11-11T10:53:07Z</time>
      </trkpt>
      <trkpt lat="43.29386" lon="5.71128">
        <ele>462.05</ele>
        <time>2016-11-11T10:53:39Z</time>
      </trkpt>
      <trkpt lat="43.29414" lon="5.71125">
        <ele>465.9</ele>
        <time>2016-11-11T10:54:12Z</time>
      </trkpt>
      <trkpt lat="43.29436" lon="5.71115">
        <ele>469.26</ele>
        <time>2016-11-11T10:54:38Z</time>
      </trkpt>
      <trkpt lat="43.29468" lon="5.71114">
        <ele>473.59</ele>
        <time>2016-11-11T10:55:18Z</time>
      </trkpt>
      <trkpt lat="43.29491" lon="5.71096">
        <ele>477.43</ele>
        <time>2016-11-11T10:55:47Z</time>
      </trkpt>
      <trkpt lat="43.29526" lon="5.7109">
        <ele>479.84</ele>
        <time>2016-11-11T10:56:25Z</time>
      </trkpt>
      <trkpt lat="43.29547" lon="5.71113">
        <ele>486.56</ele>
        <time>2016-11-11T10:56:57Z</time>
      </trkpt>
      <trkpt lat="43.29556" lon="5.71141">
        <ele>492.33</ele>
        <time>2016-11-11T10:57:24Z</time>
      </trkpt>
      <trkpt lat="43.29567" lon="5.71187">
        <ele>498.58</ele>
        <time>2016-11-11T10:58:02Z</time>
      </trkpt>
      <trkpt lat="43.29575" lon="5.71231">
        <ele>497.14</ele>
        <time>2016-11-11T10:58:34Z</time>
      </trkpt>
      <trkpt lat="43.2958" lon="5.71265">
        <ele>498.1</ele>
        <time>2016-11-11T10:58:59Z</time>
      </trkpt>
      <trkpt lat="43.29584" lon="5.71297">
        <ele>498.58</ele>
        <time>2016-11-11T10:59:23Z</time>
      </trkpt>
      <trkpt lat="43.29593" lon="5.71335">
        <ele>503.39</ele>
        <time>2016-11-11T10:59:55Z</time>
      </trkpt>
      <trkpt lat="43.29605" lon="5.71363">
        <ele>509.64</ele>
        <time>2016-11-11T11:00:24Z</time>
      </trkpt>
      <trkpt lat="43.29614" lon="5.71363">
        <ele>501.95</ele>
        <time>2016-11-11T11:03:33Z</time>
      </trkpt>
      <trkpt lat="43.29608" lon="5.71385">
        <ele>506.75</ele>
        <time>2016-11-11T11:07:16Z</time>
      </trkpt>
      <trkpt lat="43.29604" lon="5.71422">
        <ele>512.04</ele>
        <time>2016-11-11T11:07:50Z</time>
      </trkpt>
      <trkpt lat="43.29606" lon="5.71454">
        <ele>515.88</ele>
        <time>2016-11-11T11:08:24Z</time>
      </trkpt>
      <trkpt lat="43.29608" lon="5.71499">
        <ele>521.65</ele>
        <time>2016-11-11T11:09:11Z</time>
      </trkpt>
      <trkpt lat="43.29608" lon="5.71537">
        <ele>528.86</ele>
        <time>2016-11-11T11:09:57Z</time>
      </trkpt>
      <trkpt lat="43.29611" lon="5.7157">
        <ele>534.63</ele>
        <time>2016-11-11T11:10:44Z</time>
      </trkpt>
      <trkpt lat="43.29595" lon="5.71599">
        <ele>537.03</ele>
        <time>2016-11-11T11:11:24Z</time>
      </trkpt>
      <trkpt lat="43.29574" lon="5.71622">
        <ele>537.99</ele>
        <time>2016-11-11T11:11:50Z</time>
      </trkpt>
      <trkpt lat="43.29549" lon="5.71634">
        <ele>538.96</ele>
        <time>2016-11-11T11:12:15Z</time>
      </trkpt>
      <trkpt lat="43.2952" lon="5.71621">
        <ele>540.4</ele>
        <time>2016-11-11T11:12:46Z</time>
      </trkpt>
      <trkpt lat="43.29498" lon="5.71655">
        <ele>541.84</ele>
        <time>2016-11-11T11:13:20Z</time>
      </trkpt>
      <trkpt lat="43.29505" lon="5.71701">
        <ele>544.24</ele>
        <time>2016-11-11T11:14:47Z</time>
      </trkpt>
      <trkpt lat="43.29528" lon="5.71729">
        <ele>546.17</ele>
        <time>2016-11-11T11:15:15Z</time>
      </trkpt>
      <trkpt lat="43.29569" lon="5.7172">
        <ele>552.41</ele>
        <time>2016-11-11T11:15:51Z</time>
      </trkpt>
      <trkpt lat="43.29607" lon="5.71708">
        <ele>553.86</ele>
        <time>2016-11-11T11:16:21Z</time>
      </trkpt>
      <trkpt lat="43.29639" lon="5.71702">
        <ele>556.74</ele>
        <time>2016-11-11T11:16:48Z</time>
      </trkpt>
      <trkpt lat="43.29661" lon="5.71697">
        <ele>556.26</ele>
        <time>2016-11-11T11:17:05Z</time>
      </trkpt>
      <trkpt lat="43.2969" lon="5.71701">
        <ele>554.34</ele>
        <time>2016-11-11T11:17:32Z</time>
      </trkpt>
      <trkpt lat="43.29713" lon="5.71714">
        <ele>554.82</ele>
        <time>2016-11-11T11:19:30Z</time>
      </trkpt>
      <trkpt lat="43.29732" lon="5.71702">
        <ele>560.11</ele>
        <time>2016-11-11T11:19:59Z</time>
      </trkpt>
      <trkpt lat="43.29745" lon="5.7168">
        <ele>563.47</ele>
        <time>2016-11-11T11:20:33Z</time>
      </trkpt>
      <trkpt lat="43.29766" lon="5.71662">
        <ele>566.35</ele>
        <time>2016-11-11T11:21:00Z</time>
      </trkpt>
      <trkpt lat="43.29796" lon="5.71661">
        <ele>573.56</ele>
        <time>2016-11-11T11:21:40Z</time>
      </trkpt>
      <trkpt lat="43.29826" lon="5.71654">
        <ele>579.33</ele>
        <time>2016-11-11T11:22:14Z</time>
      </trkpt>
      <trkpt lat="43.29853" lon="5.71644">
        <ele>582.22</ele>
        <time>2016-11-11T11:22:50Z</time>
      </trkpt>
      <trkpt lat="43.29881" lon="5.71626">
        <ele>587.5</ele>
        <time>2016-11-11T11:23:27Z</time>
      </trkpt>
      <trkpt lat="43.29906" lon="5.71602">
        <ele>595.67</ele>
        <time>2016-11-11T11:24:07Z</time>
      </trkpt>
      <trkpt lat="43.2992" lon="5.71567">
        <ele>600.96</ele>
        <time>2016-11-11T11:24:43Z</time>
      </trkpt>
      <trkpt lat="43.29927" lon="5.7155">
        <ele>603.36</ele>
        <time>2016-11-11T11:25:29Z</time>
      </trkpt>
      <trkpt lat="43.29939" lon="5.71536">
        <ele>606.73</ele>
        <time>2016-11-11T11:26:39Z</time>
      </trkpt>
      <trkpt lat="43.29942" lon="5.71531">
        <ele>607.69</ele>
        <time>2016-11-11T11:35:46Z</time>
      </trkpt>
      <trkpt lat="43.29942" lon="5.71534">
        <ele>603.36</ele>
        <time>2016-11-11T11:45:17Z</time>
      </trkpt>
      <trkpt lat="43.29941" lon="5.71534">
        <ele>608.17</ele>
        <time>2016-11-11T11:56:29Z</time>
      </trkpt>
      <trkpt lat="43.29943" lon="5.71535">
        <ele>606.73</ele>
        <time>2016-11-11T12:08:11Z</time>
      </trkpt>
      <trkpt lat="43.29966" lon="5.71547">
        <ele>608.65</ele>
        <time>2016-11-11T12:10:36Z</time>
      </trkpt>
      <trkpt lat="43.29993" lon="5.71542">
        <ele>612.98</ele>
        <time>2016-11-11T12:11:12Z</time>
      </trkpt>
      <trkpt lat="43.30018" lon="5.71534">
        <ele>613.94</ele>
        <time>2016-11-11T12:11:41Z</time>
      </trkpt>
      <trkpt lat="43.30043" lon="5.71552">
        <ele>617.78</ele>
        <time>2016-11-11T12:12:29Z</time>
      </trkpt>
      <trkpt lat="43.3006" lon="5.71555">
        <ele>617.78</ele>
        <time>2016-11-11T12:13:06Z</time>
      </trkpt>
      <trkpt lat="43.30088" lon="5.7155">
        <ele>618.26</ele>
        <time>2016-11-11T12:13:32Z</time>
      </trkpt>
      <trkpt lat="43.30113" lon="5.71556">
        <ele>619.23</ele>
        <time>2016-11-11T12:13:54Z</time>
      </trkpt>
      <trkpt lat="43.30141" lon="5.71541">
        <ele>621.15</ele>
        <time>2016-11-11T12:14:21Z</time>
      </trkpt>
      <trkpt lat="43.30165" lon="5.71525">
        <ele>624.99</ele>
        <time>2016-11-11T12:14:44Z</time>
      </trkpt>
      <trkpt lat="43.30197" lon="5.715">
        <ele>624.51</ele>
        <time>2016-11-11T12:15:16Z</time>
      </trkpt>
      <trkpt lat="43.30228" lon="5.71467">
        <ele>626.44</ele>
        <time>2016-11-11T12:15:50Z</time>
      </trkpt>
      <trkpt lat="43.30244" lon="5.71445">
        <ele>627.88</ele>
        <time>2016-11-11T12:16:09Z</time>
      </trkpt>
      <trkpt lat="43.30275" lon="5.71422">
        <ele>628.36</ele>
        <time>2016-11-11T12:16:40Z</time>
      </trkpt>
      <trkpt lat="43.30297" lon="5.71396">
        <ele>629.8</ele>
        <time>2016-11-11T12:17:05Z</time>
      </trkpt>
      <trkpt lat="43.30319" lon="5.71376">
        <ele>632.2</ele>
        <time>2016-11-11T12:17:29Z</time>
      </trkpt>
      <trkpt lat="43.30357" lon="5.71368">
        <ele>634.61</ele>
        <time>2016-11-11T12:18:03Z</time>
      </trkpt>
      <trkpt lat="43.30386" lon="5.71391">
        <ele>637.97</ele>
        <time>2016-11-11T12:18:35Z</time>
      </trkpt>
      <trkpt lat="43.30413" lon="5.71391">
        <ele>643.26</ele>
        <time>2016-11-11T12:19:10Z</time>
      </trkpt>
      <trkpt lat="43.30416" lon="5.71356">
        <ele>646.14</ele>
        <time>2016-11-11T12:19:34Z</time>
      </trkpt>
      <trkpt lat="43.30421" lon="5.71311">
        <ele>649.51</ele>
        <time>2016-11-11T12:20:05Z</time>
      </trkpt>
      <trkpt lat="43.30428" lon="5.71265">
        <ele>651.43</ele>
        <time>2016-11-11T12:20:41Z</time>
      </trkpt>
      <trkpt lat="43.30433" lon="5.7122">
        <ele>654.8</ele>
        <time>2016-11-11T12:21:25Z</time>
      </trkpt>
      <trkpt lat="43.30443" lon="5.71182">
        <ele>659.6</ele>
        <time>2016-11-11T12:21:58Z</time>
      </trkpt>
      <trkpt lat="43.30453" lon="5.71147">
        <ele>663.45</ele>
        <time>2016-11-11T12:22:32Z</time>
      </trkpt>
      <trkpt lat="43.30464" lon="5.71109">
        <ele>668.25</ele>
        <time>2016-11-11T12:23:10Z</time>
      </trkpt>
      <trkpt lat="43.30481" lon="5.71069">
        <ele>674.5</ele>
        <time>2016-11-11T12:24:11Z</time>
      </trkpt>
      <trkpt lat="43.30484" lon="5.71034">
        <ele>677.39</ele>
        <time>2016-11-11T12:24:38Z</time>
      </trkpt>
      <trkpt lat="43.30476" lon="5.71">
        <ele>677.39</ele>
        <time>2016-11-11T12:25:08Z</time>
      </trkpt>
      <trkpt lat="43.30461" lon="5.70964">
        <ele>676.42</ele>
        <time>2016-11-11T12:25:39Z</time>
      </trkpt>
      <trkpt lat="43.30454" lon="5.70916">
        <ele>677.39</ele>
        <time>2016-11-11T12:26:12Z</time>
      </trkpt>
      <trkpt lat="43.30439" lon="5.70864">
        <ele>676.91</ele>
        <time>2016-11-11T12:26:48Z</time>
      </trkpt>
      <trkpt lat="43.30432" lon="5.70811">
        <ele>677.39</ele>
        <time>2016-11-11T12:27:24Z</time>
      </trkpt>
      <trkpt lat="43.30437" lon="5.70773">
        <ele>678.35</ele>
        <time>2016-11-11T12:27:51Z</time>
      </trkpt>
      <trkpt lat="43.30448" lon="5.70739">
        <ele>681.71</ele>
        <time>2016-11-11T12:28:19Z</time>
      </trkpt>
      <trkpt lat="43.30448" lon="5.70708">
        <ele>685.08</ele>
        <time>2016-11-11T12:28:42Z</time>
      </trkpt>
      <trkpt lat="43.30448" lon="5.70677">
        <ele>686.52</ele>
        <time>2016-11-11T12:29:05Z</time>
      </trkpt>
      <trkpt lat="43.30431" lon="5.70642">
        <ele>688.92</ele>
        <time>2016-11-11T12:29:36Z</time>
      </trkpt>
      <trkpt lat="43.30421" lon="5.70606">
        <ele>690.36</ele>
        <time>2016-11-11T12:30:02Z</time>
      </trkpt>
      <trkpt lat="43.3041" lon="5.70567">
        <ele>693.73</ele>
        <time>2016-11-11T12:30:33Z</time>
      </trkpt>
      <trkpt lat="43.30402" lon="5.70531">
        <ele>698.05</ele>
        <time>2016-11-11T12:31:05Z</time>
      </trkpt>
      <trkpt lat="43.30387" lon="5.70494">
        <ele>700.46</ele>
        <time>2016-11-11T12:31:35Z</time>
      </trkpt>
      <trkpt lat="43.30398" lon="5.70452">
        <ele>705.75</ele>
        <time>2016-11-11T12:32:14Z</time>
      </trkpt>
      <trkpt lat="43.30402" lon="5.70404">
        <ele>704.78</ele>
        <time>2016-11-11T12:32:48Z</time>
      </trkpt>
      <trkpt lat="43.30413" lon="5.70356">
        <ele>704.78</ele>
        <time>2016-11-11T12:33:22Z</time>
      </trkpt>
      <trkpt lat="43.30384" lon="5.70329">
        <ele>703.34</ele>
        <time>2016-11-11T12:33:57Z</time>
      </trkpt>
      <trkpt lat="43.30361" lon="5.703">
        <ele>699.5</ele>
        <time>2016-11-11T12:34:29Z</time>
      </trkpt>
      <trkpt lat="43.30346" lon="5.70255">
        <ele>695.17</ele>
        <time>2016-11-11T12:35:03Z</time>
      </trkpt>
      <trkpt lat="43.30352" lon="5.70201">
        <ele>694.69</ele>
        <time>2016-11-11T12:35:37Z</time>
      </trkpt>
      <trkpt lat="43.30361" lon="5.7015">
        <ele>692.77</ele>
        <time>2016-11-11T12:36:13Z</time>
      </trkpt>
      <trkpt lat="43.30383" lon="5.70096">
        <ele>692.29</ele>
        <time>2016-11-11T12:36:51Z</time>
      </trkpt>
      <trkpt lat="43.30405" lon="5.7008">
        <ele>694.69</ele>
        <time>2016-11-11T12:37:30Z</time>
      </trkpt>
      <trkpt lat="43.30426" lon="5.70084">
        <ele>700.46</ele>
        <time>2016-11-11T12:38:04Z</time>
      </trkpt>
      <trkpt lat="43.30443" lon="5.70066">
        <ele>706.23</ele>
        <time>2016-11-11T12:38:37Z</time>
      </trkpt>
      <trkpt lat="43.3044" lon="5.70033">
        <ele>708.15</ele>
        <time>2016-11-11T12:39:03Z</time>
      </trkpt>
      <trkpt lat="43.30456" lon="5.70011">
        <ele>714.4</ele>
        <time>2016-11-11T12:39:45Z</time>
      </trkpt>
      <trkpt lat="43.30469" lon="5.69982">
        <ele>724.97</ele>
        <time>2016-11-11T12:40:37Z</time>
      </trkpt>
      <trkpt lat="43.30469" lon="5.69945">
        <ele>733.14</ele>
        <time>2016-11-11T12:41:30Z</time>
      </trkpt>
      <trkpt lat="43.30459" lon="5.69916">
        <ele>741.31</ele>
        <time>2016-11-11T12:42:10Z</time>
      </trkpt>
      <trkpt lat="43.30458" lon="5.69886">
        <ele>748.52</ele>
        <time>2016-11-11T12:42:54Z</time>
      </trkpt>
      <trkpt lat="43.30455" lon="5.69854">
        <ele>754.77</ele>
        <time>2016-11-11T12:43:32Z</time>
      </trkpt>
      <trkpt lat="43.30459" lon="5.6982">
        <ele>762.94</ele>
        <time>2016-11-11T12:44:13Z</time>
      </trkpt>
      <trkpt lat="43.30462" lon="5.69784">
        <ele>770.15</ele>
        <time>2016-11-11T12:44:45Z</time>
      </trkpt>
      <trkpt lat="43.30469" lon="5.6975">
        <ele>773.52</ele>
        <time>2016-11-11T12:45:20Z</time>
      </trkpt>
      <trkpt lat="43.30493" lon="5.69755">
        <ele>779.77</ele>
        <time>2016-11-11T12:45:59Z</time>
      </trkpt>
      <trkpt lat="43.30515" lon="5.69747">
        <ele>784.57</ele>
        <time>2016-11-11T12:46:23Z</time>
      </trkpt>
      <trkpt lat="43.30539" lon="5.69748">
        <ele>790.34</ele>
        <time>2016-11-11T12:46:53Z</time>
      </trkpt>
      <trkpt lat="43.30562" lon="5.69745">
        <ele>797.07</ele>
        <time>2016-11-11T12:47:27Z</time>
      </trkpt>
      <trkpt lat="43.30585" lon="5.69757">
        <ele>805.72</ele>
        <time>2016-11-11T12:48:11Z</time>
      </trkpt>
      <trkpt lat="43.30602" lon="5.69749">
        <ele>813.89</ele>
        <time>2016-11-11T12:48:58Z</time>
      </trkpt>
      <trkpt lat="43.30615" lon="5.69746">
        <ele>818.7</ele>
        <time>2016-11-11T12:51:20Z</time>
      </trkpt>
      <trkpt lat="43.30636" lon="5.69747">
        <ele>828.79</ele>
        <time>2016-11-11T12:52:12Z</time>
      </trkpt>
      <trkpt lat="43.30652" lon="5.69732">
        <ele>840.81</ele>
        <time>2016-11-11T12:53:03Z</time>
      </trkpt>
      <trkpt lat="43.30668" lon="5.69713">
        <ele>848.02</ele>
        <time>2016-11-11T12:54:19Z</time>
      </trkpt>
      <trkpt lat="43.30685" lon="5.6973">
        <ele>855.71</ele>
        <time>2016-11-11T12:55:03Z</time>
      </trkpt>
      <trkpt lat="43.30706" lon="5.69738">
        <ele>864.84</ele>
        <time>2016-11-11T12:55:48Z</time>
      </trkpt>
      <trkpt lat="43.30722" lon="5.69735">
        <ele>872.53</ele>
        <time>2016-11-11T12:56:30Z</time>
      </trkpt>
      <trkpt lat="43.30743" lon="5.69757">
        <ele>878.3</ele>
        <time>2016-11-11T12:57:16Z</time>
      </trkpt>
      <trkpt lat="43.30764" lon="5.69772">
        <ele>882.63</ele>
        <time>2016-11-11T12:57:50Z</time>
      </trkpt>
      <trkpt lat="43.30791" lon="5.6979">
        <ele>887.43</ele>
        <time>2016-11-11T12:58:28Z</time>
      </trkpt>
      <trkpt lat="43.30816" lon="5.69796">
        <ele>892.72</ele>
        <time>2016-11-11T12:59:06Z</time>
      </trkpt>
      <trkpt lat="43.30842" lon="5.69798">
        <ele>898.01</ele>
        <time>2016-11-11T12:59:40Z</time>
      </trkpt>
      <trkpt lat="43.30861" lon="5.6978">
        <ele>904.74</ele>
        <time>2016-11-11T13:00:21Z</time>
      </trkpt>
      <trkpt lat="43.30887" lon="5.69775">
        <ele>911.47</ele>
        <time>2016-11-11T13:01:08Z</time>
      </trkpt>
      <trkpt lat="43.30908" lon="5.69781">
        <ele>913.39</ele>
        <time>2016-11-11T13:01:45Z</time>
      </trkpt>
      <trkpt lat="43.30934" lon="5.69782">
        <ele>919.64</ele>
        <time>2016-11-11T13:02:33Z</time>
      </trkpt>
      <trkpt lat="43.30956" lon="5.69795">
        <ele>924.45</ele>
        <time>2016-11-11T13:03:06Z</time>
      </trkpt>
      <trkpt lat="43.3098" lon="5.69792">
        <ele>933.1</ele>
        <time>2016-11-11T13:03:52Z</time>
      </trkpt>
      <trkpt lat="43.31004" lon="5.69795">
        <ele>940.79</ele>
        <time>2016-11-11T13:05:25Z</time>
      </trkpt>
      <trkpt lat="43.31031" lon="5.69818">
        <ele>946.07</ele>
        <time>2016-11-11T13:06:04Z</time>
      </trkpt>
      <trkpt lat="43.31059" lon="5.6982">
        <ele>949.92</ele>
        <time>2016-11-11T13:06:40Z</time>
      </trkpt>
      <trkpt lat="43.31081" lon="5.69805">
        <ele>953.77</ele>
        <time>2016-11-11T13:07:25Z</time>
      </trkpt>
      <trkpt lat="43.31102" lon="5.69796">
        <ele>957.61</ele>
        <time>2016-11-11T13:08:21Z</time>
      </trkpt>
      <trkpt lat="43.31114" lon="5.6976">
        <ele>961.46</ele>
        <time>2016-11-11T13:08:52Z</time>
      </trkpt>
      <trkpt lat="43.31123" lon="5.69729">
        <ele>963.86</ele>
        <time>2016-11-11T13:09:18Z</time>
      </trkpt>
      <trkpt lat="43.31144" lon="5.69694">
        <ele>970.59</ele>
        <time>2016-11-11T13:09:56Z</time>
      </trkpt>
      <trkpt lat="43.31165" lon="5.69678">
        <ele>973.95</ele>
        <time>2016-11-11T13:10:25Z</time>
      </trkpt>
      <trkpt lat="43.31187" lon="5.69673">
        <ele>977.8</ele>
        <time>2016-11-11T13:11:00Z</time>
      </trkpt>
      <trkpt lat="43.31213" lon="5.69691">
        <ele>985.49</ele>
        <time>2016-11-11T13:11:50Z</time>
      </trkpt>
      <trkpt lat="43.31229" lon="5.69674">
        <ele>990.3</ele>
        <time>2016-11-11T13:12:28Z</time>
      </trkpt>
      <trkpt lat="43.31223" lon="5.69641">
        <ele>990.78</ele>
        <time>2016-11-11T13:12:52Z</time>
      </trkpt>
      <trkpt lat="43.31228" lon="5.69614">
        <ele>994.14</ele>
        <time>2016-11-11T13:13:19Z</time>
      </trkpt>
      <trkpt lat="43.3124" lon="5.69576">
        <ele>998.95</ele>
        <time>2016-11-11T13:13:57Z</time>
      </trkpt>
      <trkpt lat="43.31235" lon="5.69537">
        <ele>1002.31</ele>
        <time>2016-11-11T13:14:31Z</time>
      </trkpt>
      <trkpt lat="43.31233" lon="5.69499">
        <ele>1005.68</ele>
        <time>2016-11-11T13:15:01Z</time>
      </trkpt>
      <trkpt lat="43.31233" lon="5.69465">
        <ele>1007.12</ele>
        <time>2016-11-11T13:15:29Z</time>
      </trkpt>
      <trkpt lat="43.31227" lon="5.69422">
        <ele>1005.68</ele>
        <time>2016-11-11T13:16:18Z</time>
      </trkpt>
      <trkpt lat="43.31226" lon="5.69387">
        <ele>1006.16</ele>
        <time>2016-11-11T13:16:43Z</time>
      </trkpt>
      <trkpt lat="43.31241" lon="5.69355">
        <ele>1008.08</ele>
        <time>2016-11-11T13:17:14Z</time>
      </trkpt>
      <trkpt lat="43.31255" lon="5.69318">
        <ele>1010</ele>
        <time>2016-11-11T13:17:49Z</time>
      </trkpt>
      <trkpt lat="43.31249" lon="5.69274">
        <ele>1008.08</ele>
        <time>2016-11-11T13:18:21Z</time>
      </trkpt>
      <trkpt lat="43.31243" lon="5.69235">
        <ele>1008.56</ele>
        <time>2016-11-11T13:18:50Z</time>
      </trkpt>
      <trkpt lat="43.31236" lon="5.69195">
        <ele>1011.93</ele>
        <time>2016-11-11T13:19:21Z</time>
      </trkpt>
      <trkpt lat="43.3123" lon="5.69164">
        <ele>1012.41</ele>
        <time>2016-11-11T13:19:58Z</time>
      </trkpt>
      <trkpt lat="43.3122" lon="5.69126">
        <ele>1016.73</ele>
        <time>2016-11-11T13:20:29Z</time>
      </trkpt>
      <trkpt lat="43.31205" lon="5.69092">
        <ele>1022.5</ele>
        <time>2016-11-11T13:21:01Z</time>
      </trkpt>
      <trkpt lat="43.31193" lon="5.69042">
        <ele>1026.34</ele>
        <time>2016-11-11T13:21:42Z</time>
      </trkpt>
      <trkpt lat="43.31189" lon="5.69033">
        <ele>1023.94</ele>
        <time>2016-11-11T13:23:42Z</time>
      </trkpt>
      <trkpt lat="43.31168" lon="5.69006">
        <ele>1026.83</ele>
        <time>2016-11-11T13:24:15Z</time>
      </trkpt>
      <trkpt lat="43.31147" lon="5.68976">
        <ele>1022.02</ele>
        <time>2016-11-11T13:25:11Z</time>
      </trkpt>
      <trkpt lat="43.31143" lon="5.68934">
        <ele>1021.54</ele>
        <time>2016-11-11T13:25:57Z</time>
      </trkpt>
      <trkpt lat="43.31135" lon="5.68905">
        <ele>1019.62</ele>
        <time>2016-11-11T13:26:27Z</time>
      </trkpt>
      <trkpt lat="43.31126" lon="5.68863">
        <ele>1015.77</ele>
        <time>2016-11-11T13:27:09Z</time>
      </trkpt>
      <trkpt lat="43.3111" lon="5.68836">
        <ele>1015.77</ele>
        <time>2016-11-11T13:27:38Z</time>
      </trkpt>
      <trkpt lat="43.31095" lon="5.6881">
        <ele>1015.29</ele>
        <time>2016-11-11T13:28:35Z</time>
      </trkpt>
      <trkpt lat="43.31104" lon="5.68822">
        <ele>1014.81</ele>
        <time>2016-11-11T13:30:40Z</time>
      </trkpt>
      <trkpt lat="43.31122" lon="5.68853">
        <ele>1017.21</ele>
        <time>2016-11-11T13:31:18Z</time>
      </trkpt>
      <trkpt lat="43.3114" lon="5.68841">
        <ele>1024.9</ele>
        <time>2016-11-11T13:32:05Z</time>
      </trkpt>
      <trkpt lat="43.31152" lon="5.68856">
        <ele>1030.67</ele>
        <time>2016-11-11T13:33:53Z</time>
      </trkpt>
      <trkpt lat="43.31138" lon="5.68869">
        <ele>1025.38</ele>
        <time>2016-11-11T13:34:53Z</time>
      </trkpt>
      <trkpt lat="43.3114" lon="5.68905">
        <ele>1024.42</ele>
        <time>2016-11-11T13:35:36Z</time>
      </trkpt>
      <trkpt lat="43.31145" lon="5.68937">
        <ele>1023.46</ele>
        <time>2016-11-11T13:36:20Z</time>
      </trkpt>
      <trkpt lat="43.31149" lon="5.68969">
        <ele>1024.42</ele>
        <time>2016-11-11T13:36:52Z</time>
      </trkpt>
      <trkpt lat="43.31162" lon="5.68992">
        <ele>1021.54</ele>
        <time>2016-11-11T13:37:30Z</time>
      </trkpt>
      <trkpt lat="43.3118" lon="5.6902">
        <ele>1027.31</ele>
        <time>2016-11-11T13:38:14Z</time>
      </trkpt>
      <trkpt lat="43.31194" lon="5.69019">
        <ele>1028.27</ele>
        <time>2016-11-11T13:38:48Z</time>
      </trkpt>
      <trkpt lat="43.31209" lon="5.68998">
        <ele>1035</ele>
        <time>2016-11-11T13:39:25Z</time>
      </trkpt>
      <trkpt lat="43.3123" lon="5.68988">
        <ele>1040.76</ele>
        <time>2016-11-11T13:40:18Z</time>
      </trkpt>
      <trkpt lat="43.31239" lon="5.68996">
        <ele>1041.73</ele>
        <time>2016-11-11T13:41:58Z</time>
      </trkpt>
      <trkpt lat="43.31224" lon="5.68985">
        <ele>1034.04</ele>
        <time>2016-11-11T13:43:20Z</time>
      </trkpt>
      <trkpt lat="43.31198" lon="5.69009">
        <ele>1032.59</ele>
        <time>2016-11-11T13:44:15Z</time>
      </trkpt>
      <trkpt lat="43.31195" lon="5.69056">
        <ele>1026.83</ele>
        <time>2016-11-11T13:44:52Z</time>
      </trkpt>
      <trkpt lat="43.31205" lon="5.69089">
        <ele>1023.46</ele>
        <time>2016-11-11T13:45:17Z</time>
      </trkpt>
      <trkpt lat="43.3122" lon="5.69128">
        <ele>1018.65</ele>
        <time>2016-11-11T13:45:52Z</time>
      </trkpt>
      <trkpt lat="43.31234" lon="5.69184">
        <ele>1013.37</ele>
        <time>2016-11-11T13:46:32Z</time>
      </trkpt>
      <trkpt lat="43.3124" lon="5.69216">
        <ele>1011.93</ele>
        <time>2016-11-11T13:46:54Z</time>
      </trkpt>
      <trkpt lat="43.31248" lon="5.69275">
        <ele>1009.52</ele>
        <time>2016-11-11T13:47:34Z</time>
      </trkpt>
      <trkpt lat="43.31248" lon="5.69309">
        <ele>1007.6</ele>
        <time>2016-11-11T13:48:13Z</time>
      </trkpt>
      <trkpt lat="43.31247" lon="5.69347">
        <ele>1007.12</ele>
        <time>2016-11-11T13:48:40Z</time>
      </trkpt>
      <trkpt lat="43.31228" lon="5.69371">
        <ele>1005.68</ele>
        <time>2016-11-11T13:49:10Z</time>
      </trkpt>
      <trkpt lat="43.31227" lon="5.69407">
        <ele>1005.2</ele>
        <time>2016-11-11T13:49:39Z</time>
      </trkpt>
      <trkpt lat="43.31232" lon="5.69436">
        <ele>1006.64</ele>
        <time>2016-11-11T13:50:02Z</time>
      </trkpt>
      <trkpt lat="43.31232" lon="5.69467">
        <ele>1005.2</ele>
        <time>2016-11-11T13:50:27Z</time>
      </trkpt>
      <trkpt lat="43.31236" lon="5.69498">
        <ele>1004.23</ele>
        <time>2016-11-11T13:50:52Z</time>
      </trkpt>
      <trkpt lat="43.31236" lon="5.69534">
        <ele>1000.39</ele>
        <time>2016-11-11T13:51:20Z</time>
      </trkpt>
      <trkpt lat="43.3124" lon="5.69578">
        <ele>997.51</ele>
        <time>2016-11-11T13:51:52Z</time>
      </trkpt>
      <trkpt lat="43.31231" lon="5.69609">
        <ele>992.7</ele>
        <time>2016-11-11T13:52:20Z</time>
      </trkpt>
      <trkpt lat="43.31222" lon="5.69642">
        <ele>989.81</ele>
        <time>2016-11-11T13:52:54Z</time>
      </trkpt>
      <trkpt lat="43.31229" lon="5.69681">
        <ele>988.37</ele>
        <time>2016-11-11T13:53:30Z</time>
      </trkpt>
      <trkpt lat="43.31201" lon="5.69688">
        <ele>981.64</ele>
        <time>2016-11-11T13:54:07Z</time>
      </trkpt>
      <trkpt lat="43.31181" lon="5.69671">
        <ele>975.39</ele>
        <time>2016-11-11T13:54:37Z</time>
      </trkpt>
      <trkpt lat="43.31159" lon="5.69684">
        <ele>969.15</ele>
        <time>2016-11-11T13:55:11Z</time>
      </trkpt>
      <trkpt lat="43.31135" lon="5.69704">
        <ele>964.34</ele>
        <time>2016-11-11T13:55:50Z</time>
      </trkpt>
      <trkpt lat="43.31119" lon="5.69744">
        <ele>960.49</ele>
        <time>2016-11-11T13:56:23Z</time>
      </trkpt>
      <trkpt lat="43.31112" lon="5.69779">
        <ele>957.61</ele>
        <time>2016-11-11T13:56:49Z</time>
      </trkpt>
      <trkpt lat="43.31101" lon="5.69795">
        <ele>959.05</ele>
        <time>2016-11-11T13:58:22Z</time>
      </trkpt>
      <trkpt lat="43.31081" lon="5.69804">
        <ele>952.8</ele>
        <time>2016-11-11T13:59:54Z</time>
      </trkpt>
      <trkpt lat="43.31072" lon="5.69833">
        <ele>951.84</ele>
        <time>2016-11-11T14:00:30Z</time>
      </trkpt>
      <trkpt lat="43.31078" lon="5.69869">
        <ele>958.09</ele>
        <time>2016-11-11T14:01:10Z</time>
      </trkpt>
      <trkpt lat="43.31088" lon="5.69905">
        <ele>962.42</ele>
        <time>2016-11-11T14:01:44Z</time>
      </trkpt>
      <trkpt lat="43.31096" lon="5.69953">
        <ele>962.42</ele>
        <time>2016-11-11T14:02:23Z</time>
      </trkpt>
      <trkpt lat="43.31111" lon="5.69998">
        <ele>960.98</ele>
        <time>2016-11-11T14:02:58Z</time>
      </trkpt>
      <trkpt lat="43.31117" lon="5.70027">
        <ele>960.98</ele>
        <time>2016-11-11T14:03:19Z</time>
      </trkpt>
      <trkpt lat="43.31133" lon="5.70071">
        <ele>958.57</ele>
        <time>2016-11-11T14:03:51Z</time>
      </trkpt>
      <trkpt lat="43.31141" lon="5.70101">
        <ele>958.09</ele>
        <time>2016-11-11T14:04:12Z</time>
      </trkpt>
      <trkpt lat="43.31153" lon="5.70135">
        <ele>959.05</ele>
        <time>2016-11-11T14:04:37Z</time>
      </trkpt>
      <trkpt lat="43.31161" lon="5.70174">
        <ele>960.01</ele>
        <time>2016-11-11T14:05:07Z</time>
      </trkpt>
      <trkpt lat="43.31169" lon="5.70204">
        <ele>960.98</ele>
        <time>2016-11-11T14:05:28Z</time>
      </trkpt>
      <trkpt lat="43.31181" lon="5.70252">
        <ele>961.46</ele>
        <time>2016-11-11T14:06:02Z</time>
      </trkpt>
      <trkpt lat="43.31191" lon="5.70297">
        <ele>961.46</ele>
        <time>2016-11-11T14:06:34Z</time>
      </trkpt>
      <trkpt lat="43.31195" lon="5.70333">
        <ele>960.98</ele>
        <time>2016-11-11T14:06:57Z</time>
      </trkpt>
      <trkpt lat="43.31203" lon="5.70378">
        <ele>961.94</ele>
        <time>2016-11-11T14:07:29Z</time>
      </trkpt>
      <trkpt lat="43.31208" lon="5.70426">
        <ele>960.98</ele>
        <time>2016-11-11T14:08:02Z</time>
      </trkpt>
      <trkpt lat="43.3121" lon="5.70458">
        <ele>961.94</ele>
        <time>2016-11-11T14:08:24Z</time>
      </trkpt>
      <trkpt lat="43.31218" lon="5.7051">
        <ele>964.34</ele>
        <time>2016-11-11T14:09:00Z</time>
      </trkpt>
      <trkpt lat="43.31227" lon="5.70542">
        <ele>964.34</ele>
        <time>2016-11-11T14:09:26Z</time>
      </trkpt>
      <trkpt lat="43.31234" lon="5.70583">
        <ele>964.34</ele>
        <time>2016-11-11T14:09:56Z</time>
      </trkpt>
      <trkpt lat="43.31238" lon="5.70614">
        <ele>963.38</ele>
        <time>2016-11-11T14:10:19Z</time>
      </trkpt>
      <trkpt lat="43.31247" lon="5.70666">
        <ele>963.86</ele>
        <time>2016-11-11T14:10:55Z</time>
      </trkpt>
      <trkpt lat="43.31269" lon="5.70689">
        <ele>964.82</ele>
        <time>2016-11-11T14:11:30Z</time>
      </trkpt>
      <trkpt lat="43.31283" lon="5.70715">
        <ele>966.26</ele>
        <time>2016-11-11T14:11:56Z</time>
      </trkpt>
      <trkpt lat="43.313" lon="5.70749">
        <ele>967.7</ele>
        <time>2016-11-11T14:12:25Z</time>
      </trkpt>
      <trkpt lat="43.31315" lon="5.70779">
        <ele>971.07</ele>
        <time>2016-11-11T14:12:53Z</time>
      </trkpt>
      <trkpt lat="43.31332" lon="5.70826">
        <ele>971.55</ele>
        <time>2016-11-11T14:13:28Z</time>
      </trkpt>
      <trkpt lat="43.31344" lon="5.70853">
        <ele>975.39</ele>
        <time>2016-11-11T14:13:58Z</time>
      </trkpt>
      <trkpt lat="43.3135" lon="5.70883">
        <ele>978.28</ele>
        <time>2016-11-11T14:14:24Z</time>
      </trkpt>
      <trkpt lat="43.3136" lon="5.70912">
        <ele>981.16</ele>
        <time>2016-11-11T14:14:52Z</time>
      </trkpt>
      <trkpt lat="43.31369" lon="5.70952">
        <ele>983.57</ele>
        <time>2016-11-11T14:15:25Z</time>
      </trkpt>
      <trkpt lat="43.31384" lon="5.7098">
        <ele>983.09</ele>
        <time>2016-11-11T14:15:54Z</time>
      </trkpt>
      <trkpt lat="43.31394" lon="5.71019">
        <ele>986.45</ele>
        <time>2016-11-11T14:16:27Z</time>
      </trkpt>
      <trkpt lat="43.31405" lon="5.71047">
        <ele>987.41</ele>
        <time>2016-11-11T14:16:54Z</time>
      </trkpt>
      <trkpt lat="43.31414" lon="5.71077">
        <ele>986.93</ele>
        <time>2016-11-11T14:17:22Z</time>
      </trkpt>
      <trkpt lat="43.31426" lon="5.71106">
        <ele>984.53</ele>
        <time>2016-11-11T14:17:48Z</time>
      </trkpt>
      <trkpt lat="43.31441" lon="5.71146">
        <ele>987.89</ele>
        <time>2016-11-11T14:18:24Z</time>
      </trkpt>
      <trkpt lat="43.31445" lon="5.71188">
        <ele>990.78</ele>
        <time>2016-11-11T14:19:00Z</time>
      </trkpt>
      <trkpt lat="43.31457" lon="5.71225">
        <ele>993.66</ele>
        <time>2016-11-11T14:19:34Z</time>
      </trkpt>
      <trkpt lat="43.31468" lon="5.7126">
        <ele>994.14</ele>
        <time>2016-11-11T14:20:07Z</time>
      </trkpt>
      <trkpt lat="43.31486" lon="5.71283">
        <ele>995.58</ele>
        <time>2016-11-11T14:20:41Z</time>
      </trkpt>
      <trkpt lat="43.31503" lon="5.71304">
        <ele>997.99</ele>
        <time>2016-11-11T14:21:14Z</time>
      </trkpt>
      <trkpt lat="43.31517" lon="5.71338">
        <ele>1001.35</ele>
        <time>2016-11-11T14:21:50Z</time>
      </trkpt>
      <trkpt lat="43.31534" lon="5.7136">
        <ele>999.43</ele>
        <time>2016-11-11T14:22:17Z</time>
      </trkpt>
      <trkpt lat="43.31536" lon="5.71402">
        <ele>1002.79</ele>
        <time>2016-11-11T14:22:54Z</time>
      </trkpt>
      <trkpt lat="43.31541" lon="5.71438">
        <ele>1005.2</ele>
        <time>2016-11-11T14:23:48Z</time>
      </trkpt>
      <trkpt lat="43.31548" lon="5.71483">
        <ele>1009.52</ele>
        <time>2016-11-11T14:24:29Z</time>
      </trkpt>
      <trkpt lat="43.31553" lon="5.71516">
        <ele>1011.93</ele>
        <time>2016-11-11T14:24:56Z</time>
      </trkpt>
      <trkpt lat="43.31566" lon="5.71542">
        <ele>1010.48</ele>
        <time>2016-11-11T14:25:18Z</time>
      </trkpt>
      <trkpt lat="43.31574" lon="5.71572">
        <ele>1016.25</ele>
        <time>2016-11-11T14:25:47Z</time>
      </trkpt>
      <trkpt lat="43.31573" lon="5.71605">
        <ele>1019.13</ele>
        <time>2016-11-11T14:26:17Z</time>
      </trkpt>
      <trkpt lat="43.3158" lon="5.71634">
        <ele>1022.98</ele>
        <time>2016-11-11T14:26:59Z</time>
      </trkpt>
      <trkpt lat="43.31591" lon="5.71662">
        <ele>1025.86</ele>
        <time>2016-11-11T14:27:26Z</time>
      </trkpt>
      <trkpt lat="43.31601" lon="5.7169">
        <ele>1028.27</ele>
        <time>2016-11-11T14:27:55Z</time>
      </trkpt>
      <trkpt lat="43.31613" lon="5.71727">
        <ele>1031.63</ele>
        <time>2016-11-11T14:28:29Z</time>
      </trkpt>
      <trkpt lat="43.31623" lon="5.71766">
        <ele>1035</ele>
        <time>2016-11-11T14:29:02Z</time>
      </trkpt>
      <trkpt lat="43.31634" lon="5.71794">
        <ele>1036.92</ele>
        <time>2016-11-11T14:29:27Z</time>
      </trkpt>
      <trkpt lat="43.31641" lon="5.71826">
        <ele>1037.4</ele>
        <time>2016-11-11T14:29:52Z</time>
      </trkpt>
      <trkpt lat="43.31652" lon="5.7185">
        <ele>1036.92</ele>
        <time>2016-11-11T14:32:21Z</time>
      </trkpt>
      <trkpt lat="43.31662" lon="5.71879">
        <ele>1035.96</ele>
        <time>2016-11-11T14:32:46Z</time>
      </trkpt>
      <trkpt lat="43.31668" lon="5.71925">
        <ele>1032.59</ele>
        <time>2016-11-11T14:33:19Z</time>
      </trkpt>
      <trkpt lat="43.31675" lon="5.71958">
        <ele>1030.67</ele>
        <time>2016-11-11T14:33:42Z</time>
      </trkpt>
      <trkpt lat="43.31684" lon="5.72003">
        <ele>1028.75</ele>
        <time>2016-11-11T14:34:13Z</time>
      </trkpt>
      <trkpt lat="43.31691" lon="5.7204">
        <ele>1028.27</ele>
        <time>2016-11-11T14:34:39Z</time>
      </trkpt>
      <trkpt lat="43.31707" lon="5.7209">
        <ele>1026.83</ele>
        <time>2016-11-11T14:35:14Z</time>
      </trkpt>
      <trkpt lat="43.31718" lon="5.72131">
        <ele>1024.9</ele>
        <time>2016-11-11T14:35:48Z</time>
      </trkpt>
      <trkpt lat="43.31719" lon="5.72187">
        <ele>1024.9</ele>
        <time>2016-11-11T14:36:24Z</time>
      </trkpt>
      <trkpt lat="43.31722" lon="5.7222">
        <ele>1023.46</ele>
        <time>2016-11-11T14:36:45Z</time>
      </trkpt>
      <trkpt lat="43.31721" lon="5.72279">
        <ele>1021.54</ele>
        <time>2016-11-11T14:37:28Z</time>
      </trkpt>
      <trkpt lat="43.31721" lon="5.72316">
        <ele>1020.58</ele>
        <time>2016-11-11T14:37:51Z</time>
      </trkpt>
      <trkpt lat="43.31717" lon="5.72372">
        <ele>1018.17</ele>
        <time>2016-11-11T14:38:25Z</time>
      </trkpt>
      <trkpt lat="43.31715" lon="5.72411">
        <ele>1015.77</ele>
        <time>2016-11-11T14:38:51Z</time>
      </trkpt>
      <trkpt lat="43.31717" lon="5.72445">
        <ele>1013.85</ele>
        <time>2016-11-11T14:39:12Z</time>
      </trkpt>
      <trkpt lat="43.31706" lon="5.72484">
        <ele>1007.6</ele>
        <time>2016-11-11T14:39:48Z</time>
      </trkpt>
      <trkpt lat="43.31695" lon="5.72509">
        <ele>1003.75</ele>
        <time>2016-11-11T14:40:46Z</time>
      </trkpt>
      <trkpt lat="43.31677" lon="5.7253">
        <ele>993.18</ele>
        <time>2016-11-11T14:41:33Z</time>
      </trkpt>
      <trkpt lat="43.31677" lon="5.72572">
        <ele>991.74</ele>
        <time>2016-11-11T14:42:02Z</time>
      </trkpt>
      <trkpt lat="43.31656" lon="5.72575">
        <ele>984.05</ele>
        <time>2016-11-11T14:42:45Z</time>
      </trkpt>
      <trkpt lat="43.31634" lon="5.72576">
        <ele>972.03</ele>
        <time>2016-11-11T14:43:36Z</time>
      </trkpt>
      <trkpt lat="43.31614" lon="5.72588">
        <ele>963.38</ele>
        <time>2016-11-11T14:44:14Z</time>
      </trkpt>
      <trkpt lat="43.31591" lon="5.72581">
        <ele>955.69</ele>
        <time>2016-11-11T14:44:55Z</time>
      </trkpt>
      <trkpt lat="43.3157" lon="5.72587">
        <ele>946.07</ele>
        <time>2016-11-11T14:45:35Z</time>
      </trkpt>
      <trkpt lat="43.3155" lon="5.72599">
        <ele>935.98</ele>
        <time>2016-11-11T14:46:20Z</time>
      </trkpt>
      <trkpt lat="43.31531" lon="5.72624">
        <ele>920.12</ele>
        <time>2016-11-11T14:47:11Z</time>
      </trkpt>
      <trkpt lat="43.31509" lon="5.72591">
        <ele>913.39</ele>
        <time>2016-11-11T14:47:48Z</time>
      </trkpt>
      <trkpt lat="43.31491" lon="5.72566">
        <ele>905.7</ele>
        <time>2016-11-11T14:48:32Z</time>
      </trkpt>
      <trkpt lat="43.31484" lon="5.72534">
        <ele>895.12</ele>
        <time>2016-11-11T14:49:21Z</time>
      </trkpt>
      <trkpt lat="43.31478" lon="5.72506">
        <ele>881.19</ele>
        <time>2016-11-11T14:50:10Z</time>
      </trkpt>
      <trkpt lat="43.3146" lon="5.72485">
        <ele>869.65</ele>
        <time>2016-11-11T14:50:58Z</time>
      </trkpt>
      <trkpt lat="43.31451" lon="5.72455">
        <ele>862.44</ele>
        <time>2016-11-11T14:51:35Z</time>
      </trkpt>
      <trkpt lat="43.31428" lon="5.72426">
        <ele>860.04</ele>
        <time>2016-11-11T14:52:18Z</time>
      </trkpt>
      <trkpt lat="43.31401" lon="5.7241">
        <ele>864.84</ele>
        <time>2016-11-11T14:52:53Z</time>
      </trkpt>
      <trkpt lat="43.31381" lon="5.72424">
        <ele>856.19</ele>
        <time>2016-11-11T14:53:30Z</time>
      </trkpt>
      <trkpt lat="43.3136" lon="5.72426">
        <ele>839.85</ele>
        <time>2016-11-11T14:54:10Z</time>
      </trkpt>
      <trkpt lat="43.31334" lon="5.72417">
        <ele>813.41</ele>
        <time>2016-11-11T14:55:00Z</time>
      </trkpt>
      <trkpt lat="43.31308" lon="5.72408">
        <ele>811.49</ele>
        <time>2016-11-11T14:55:40Z</time>
      </trkpt>
      <trkpt lat="43.31285" lon="5.72412">
        <ele>799.95</ele>
        <time>2016-11-11T14:56:18Z</time>
      </trkpt>
      <trkpt lat="43.31261" lon="5.72422">
        <ele>791.78</ele>
        <time>2016-11-11T14:56:52Z</time>
      </trkpt>
      <trkpt lat="43.31238" lon="5.72431">
        <ele>787.94</ele>
        <time>2016-11-11T14:57:30Z</time>
      </trkpt>
      <trkpt lat="43.31207" lon="5.72432">
        <ele>780.73</ele>
        <time>2016-11-11T14:58:59Z</time>
      </trkpt>
      <trkpt lat="43.31185" lon="5.72428">
        <ele>784.57</ele>
        <time>2016-11-11T14:59:25Z</time>
      </trkpt>
      <trkpt lat="43.31161" lon="5.72425">
        <ele>787.46</ele>
        <time>2016-11-11T14:59:52Z</time>
      </trkpt>
      <trkpt lat="43.31136" lon="5.72422">
        <ele>787.94</ele>
        <time>2016-11-11T15:00:27Z</time>
      </trkpt>
      <trkpt lat="43.31102" lon="5.72425">
        <ele>782.17</ele>
        <time>2016-11-11T15:01:06Z</time>
      </trkpt>
      <trkpt lat="43.31069" lon="5.72409">
        <ele>767.75</ele>
        <time>2016-11-11T15:01:36Z</time>
      </trkpt>
      <trkpt lat="43.31054" lon="5.72385">
        <ele>762.94</ele>
        <time>2016-11-11T15:02:03Z</time>
      </trkpt>
      <trkpt lat="43.31032" lon="5.72354">
        <ele>755.73</ele>
        <time>2016-11-11T15:02:43Z</time>
      </trkpt>
      <trkpt lat="43.31017" lon="5.7233">
        <ele>760.54</ele>
        <time>2016-11-11T15:03:13Z</time>
      </trkpt>
      <trkpt lat="43.30998" lon="5.72295">
        <ele>762.46</ele>
        <time>2016-11-11T15:04:01Z</time>
      </trkpt>
      <trkpt lat="43.30983" lon="5.72248">
        <ele>763.42</ele>
        <time>2016-11-11T15:04:38Z</time>
      </trkpt>
      <trkpt lat="43.3097" lon="5.7222">
        <ele>769.19</ele>
        <time>2016-11-11T15:05:01Z</time>
      </trkpt>
      <trkpt lat="43.30959" lon="5.72189">
        <ele>765.83</ele>
        <time>2016-11-11T15:05:22Z</time>
      </trkpt>
      <trkpt lat="43.3095" lon="5.72157">
        <ele>762.94</ele>
        <time>2016-11-11T15:05:46Z</time>
      </trkpt>
      <trkpt lat="43.30939" lon="5.72116">
        <ele>761.02</ele>
        <time>2016-11-11T15:06:10Z</time>
      </trkpt>
      <trkpt lat="43.30931" lon="5.72076">
        <ele>763.9</ele>
        <time>2016-11-11T15:06:39Z</time>
      </trkpt>
      <trkpt lat="43.30928" lon="5.72041">
        <ele>764.39</ele>
        <time>2016-11-11T15:07:01Z</time>
      </trkpt>
      <trkpt lat="43.30927" lon="5.71984">
        <ele>752.37</ele>
        <time>2016-11-11T15:07:31Z</time>
      </trkpt>
      <trkpt lat="43.30899" lon="5.71942">
        <ele>751.89</ele>
        <time>2016-11-11T15:08:04Z</time>
      </trkpt>
      <trkpt lat="43.30864" lon="5.71925">
        <ele>751.41</ele>
        <time>2016-11-11T15:08:33Z</time>
      </trkpt>
      <trkpt lat="43.30828" lon="5.71913">
        <ele>753.81</ele>
        <time>2016-11-11T15:09:02Z</time>
      </trkpt>
      <trkpt lat="43.30805" lon="5.71902">
        <ele>752.37</ele>
        <time>2016-11-11T15:09:17Z</time>
      </trkpt>
      <trkpt lat="43.30783" lon="5.71873">
        <ele>748.52</ele>
        <time>2016-11-11T15:09:42Z</time>
      </trkpt>
      <trkpt lat="43.30768" lon="5.71825">
        <ele>742.28</ele>
        <time>2016-11-11T15:10:15Z</time>
      </trkpt>
      <trkpt lat="43.30767" lon="5.71783">
        <ele>743.72</ele>
        <time>2016-11-11T15:10:41Z</time>
      </trkpt>
      <trkpt lat="43.30774" lon="5.71748">
        <ele>747.08</ele>
        <time>2016-11-11T15:11:04Z</time>
      </trkpt>
      <trkpt lat="43.30798" lon="5.71712">
        <ele>741.31</ele>
        <time>2016-11-11T15:11:32Z</time>
      </trkpt>
      <trkpt lat="43.30832" lon="5.71666">
        <ele>736.03</ele>
        <time>2016-11-11T15:12:09Z</time>
      </trkpt>
      <trkpt lat="43.30855" lon="5.7165">
        <ele>731.7</ele>
        <time>2016-11-11T15:12:28Z</time>
      </trkpt>
      <trkpt lat="43.30888" lon="5.71635">
        <ele>726.41</ele>
        <time>2016-11-11T15:12:55Z</time>
      </trkpt>
      <trkpt lat="43.30906" lon="5.71607">
        <ele>727.37</ele>
        <time>2016-11-11T15:13:21Z</time>
      </trkpt>
      <trkpt lat="43.30878" lon="5.7159">
        <ele>723.05</ele>
        <time>2016-11-11T15:13:55Z</time>
      </trkpt>
      <trkpt lat="43.3084" lon="5.71582">
        <ele>721.13</ele>
        <time>2016-11-11T15:14:27Z</time>
      </trkpt>
      <trkpt lat="43.30817" lon="5.71572">
        <ele>719.68</ele>
        <time>2016-11-11T15:14:43Z</time>
      </trkpt>
      <trkpt lat="43.30787" lon="5.71566">
        <ele>719.68</ele>
        <time>2016-11-11T15:15:11Z</time>
      </trkpt>
      <trkpt lat="43.30763" lon="5.71578">
        <ele>713.92</ele>
        <time>2016-11-11T15:15:38Z</time>
      </trkpt>
      <trkpt lat="43.30723" lon="5.71578">
        <ele>711.03</ele>
        <time>2016-11-11T15:16:06Z</time>
      </trkpt>
      <trkpt lat="43.30692" lon="5.71574">
        <ele>711.51</ele>
        <time>2016-11-11T15:16:34Z</time>
      </trkpt>
      <trkpt lat="43.30662" lon="5.71566">
        <ele>709.59</ele>
        <time>2016-11-11T15:16:58Z</time>
      </trkpt>
      <trkpt lat="43.30641" lon="5.71552">
        <ele>703.82</ele>
        <time>2016-11-11T15:17:15Z</time>
      </trkpt>
      <trkpt lat="43.3061" lon="5.71526">
        <ele>696.61</ele>
        <time>2016-11-11T15:17:49Z</time>
      </trkpt>
      <trkpt lat="43.3059" lon="5.71502">
        <ele>697.09</ele>
        <time>2016-11-11T15:18:16Z</time>
      </trkpt>
      <trkpt lat="43.30563" lon="5.71477">
        <ele>689.4</ele>
        <time>2016-11-11T15:18:51Z</time>
      </trkpt>
      <trkpt lat="43.30528" lon="5.71444">
        <ele>677.39</ele>
        <time>2016-11-11T15:19:28Z</time>
      </trkpt>
      <trkpt lat="43.30519" lon="5.71414">
        <ele>672.1</ele>
        <time>2016-11-11T15:19:46Z</time>
      </trkpt>
      <trkpt lat="43.30511" lon="5.71384">
        <ele>670.66</ele>
        <time>2016-11-11T15:20:04Z</time>
      </trkpt>
      <trkpt lat="43.30497" lon="5.71341">
        <ele>664.89</ele>
        <time>2016-11-11T15:20:33Z</time>
      </trkpt>
      <trkpt lat="43.30484" lon="5.71314">
        <ele>661.52</ele>
        <time>2016-11-11T15:20:52Z</time>
      </trkpt>
      <trkpt lat="43.30472" lon="5.7126">
        <ele>660.08</ele>
        <time>2016-11-11T15:21:28Z</time>
      </trkpt>
      <trkpt lat="43.30444" lon="5.7124">
        <ele>655.76</ele>
        <time>2016-11-11T15:22:05Z</time>
      </trkpt>
      <trkpt lat="43.30422" lon="5.71275">
        <ele>651.43</ele>
        <time>2016-11-11T15:22:45Z</time>
      </trkpt>
      <trkpt lat="43.30417" lon="5.71306">
        <ele>648.07</ele>
        <time>2016-11-11T15:23:04Z</time>
      </trkpt>
      <trkpt lat="43.30411" lon="5.71362">
        <ele>643.26</ele>
        <time>2016-11-11T15:23:39Z</time>
      </trkpt>
      <trkpt lat="43.30404" lon="5.71399">
        <ele>641.34</ele>
        <time>2016-11-11T15:24:06Z</time>
      </trkpt>
      <trkpt lat="43.30383" lon="5.71381">
        <ele>639.89</ele>
        <time>2016-11-11T15:24:31Z</time>
      </trkpt>
      <trkpt lat="43.30355" lon="5.71366">
        <ele>639.41</ele>
        <time>2016-11-11T15:24:58Z</time>
      </trkpt>
      <trkpt lat="43.30312" lon="5.71374">
        <ele>635.57</ele>
        <time>2016-11-11T15:25:32Z</time>
      </trkpt>
      <trkpt lat="43.30292" lon="5.71393">
        <ele>632.68</ele>
        <time>2016-11-11T15:25:50Z</time>
      </trkpt>
      <trkpt lat="43.30256" lon="5.71427">
        <ele>630.28</ele>
        <time>2016-11-11T15:26:25Z</time>
      </trkpt>
      <trkpt lat="43.30236" lon="5.71447">
        <ele>629.32</ele>
        <time>2016-11-11T15:26:43Z</time>
      </trkpt>
      <trkpt lat="43.30219" lon="5.71475">
        <ele>626.92</ele>
        <time>2016-11-11T15:27:02Z</time>
      </trkpt>
      <trkpt lat="43.30201" lon="5.71494">
        <ele>624.03</ele>
        <time>2016-11-11T15:27:20Z</time>
      </trkpt>
      <trkpt lat="43.30159" lon="5.71526">
        <ele>620.19</ele>
        <time>2016-11-11T15:27:57Z</time>
      </trkpt>
      <trkpt lat="43.30136" lon="5.71543">
        <ele>620.67</ele>
        <time>2016-11-11T15:28:18Z</time>
      </trkpt>
      <trkpt lat="43.30094" lon="5.71551">
        <ele>620.19</ele>
        <time>2016-11-11T15:28:52Z</time>
      </trkpt>
      <trkpt lat="43.30071" lon="5.71551">
        <ele>620.19</ele>
        <time>2016-11-11T15:29:10Z</time>
      </trkpt>
      <trkpt lat="43.30046" lon="5.71551">
        <ele>617.78</ele>
        <time>2016-11-11T15:29:30Z</time>
      </trkpt>
      <trkpt lat="43.30025" lon="5.71535">
        <ele>615.38</ele>
        <time>2016-11-11T15:29:49Z</time>
      </trkpt>
      <trkpt lat="43.29994" lon="5.71527">
        <ele>613.94</ele>
        <time>2016-11-11T15:30:17Z</time>
      </trkpt>
      <trkpt lat="43.2996" lon="5.7154">
        <ele>612.02</ele>
        <time>2016-11-11T15:30:52Z</time>
      </trkpt>
      <trkpt lat="43.29934" lon="5.71546">
        <ele>607.69</ele>
        <time>2016-11-11T15:31:15Z</time>
      </trkpt>
      <trkpt lat="43.29917" lon="5.71577">
        <ele>601.44</ele>
        <time>2016-11-11T15:31:45Z</time>
      </trkpt>
      <trkpt lat="43.29897" lon="5.71604">
        <ele>596.64</ele>
        <time>2016-11-11T15:32:17Z</time>
      </trkpt>
      <trkpt lat="43.29879" lon="5.71627">
        <ele>590.87</ele>
        <time>2016-11-11T15:32:47Z</time>
      </trkpt>
      <trkpt lat="43.29848" lon="5.71647">
        <ele>583.66</ele>
        <time>2016-11-11T15:33:24Z</time>
      </trkpt>
      <trkpt lat="43.29822" lon="5.71654">
        <ele>579.33</ele>
        <time>2016-11-11T15:33:58Z</time>
      </trkpt>
      <trkpt lat="43.29784" lon="5.71659">
        <ele>582.7</ele>
        <time>2016-11-11T15:34:41Z</time>
      </trkpt>
      <trkpt lat="43.29758" lon="5.71665">
        <ele>570.2</ele>
        <time>2016-11-11T15:35:10Z</time>
      </trkpt>
      <trkpt lat="43.2974" lon="5.71686">
        <ele>564.91</ele>
        <time>2016-11-11T15:35:31Z</time>
      </trkpt>
      <trkpt lat="43.29728" lon="5.71717">
        <ele>558.66</ele>
        <time>2016-11-11T15:35:56Z</time>
      </trkpt>
      <trkpt lat="43.297" lon="5.7171">
        <ele>553.86</ele>
        <time>2016-11-11T15:36:26Z</time>
      </trkpt>
      <trkpt lat="43.29663" lon="5.71693">
        <ele>551.93</ele>
        <time>2016-11-11T15:37:00Z</time>
      </trkpt>
      <trkpt lat="43.29622" lon="5.71701">
        <ele>554.34</ele>
        <time>2016-11-11T15:37:35Z</time>
      </trkpt>
      <trkpt lat="43.29586" lon="5.71711">
        <ele>556.74</ele>
        <time>2016-11-11T15:38:05Z</time>
      </trkpt>
      <trkpt lat="43.29546" lon="5.71722">
        <ele>555.3</ele>
        <time>2016-11-11T15:38:37Z</time>
      </trkpt>
      <trkpt lat="43.29508" lon="5.71701">
        <ele>550.49</ele>
        <time>2016-11-11T15:39:14Z</time>
      </trkpt>
      <trkpt lat="43.29502" lon="5.71652">
        <ele>547.13</ele>
        <time>2016-11-11T15:39:46Z</time>
      </trkpt>
      <trkpt lat="43.29515" lon="5.71625">
        <ele>544.24</ele>
        <time>2016-11-11T15:40:05Z</time>
      </trkpt>
      <trkpt lat="43.29537" lon="5.71634">
        <ele>541.84</ele>
        <time>2016-11-11T15:40:23Z</time>
      </trkpt>
      <trkpt lat="43.29565" lon="5.71632">
        <ele>540.4</ele>
        <time>2016-11-11T15:40:45Z</time>
      </trkpt>
      <trkpt lat="43.29584" lon="5.71616">
        <ele>540.88</ele>
        <time>2016-11-11T15:41:03Z</time>
      </trkpt>
      <trkpt lat="43.29604" lon="5.71596">
        <ele>540.4</ele>
        <time>2016-11-11T15:41:22Z</time>
      </trkpt>
      <trkpt lat="43.2961" lon="5.71562">
        <ele>533.67</ele>
        <time>2016-11-11T15:42:00Z</time>
      </trkpt>
      <trkpt lat="43.29608" lon="5.7153">
        <ele>532.23</ele>
        <time>2016-11-11T15:42:43Z</time>
      </trkpt>
      <trkpt lat="43.29608" lon="5.71488">
        <ele>530.3</ele>
        <time>2016-11-11T15:43:13Z</time>
      </trkpt>
      <trkpt lat="43.29608" lon="5.71457">
        <ele>528.38</ele>
        <time>2016-11-11T15:43:35Z</time>
      </trkpt>
      <trkpt lat="43.29607" lon="5.71424">
        <ele>523.58</ele>
        <time>2016-11-11T15:44:02Z</time>
      </trkpt>
      <trkpt lat="43.29607" lon="5.71393">
        <ele>520.69</ele>
        <time>2016-11-11T15:44:29Z</time>
      </trkpt>
      <trkpt lat="43.29605" lon="5.71357">
        <ele>516.85</ele>
        <time>2016-11-11T15:44:51Z</time>
      </trkpt>
      <trkpt lat="43.29595" lon="5.71327">
        <ele>510.6</ele>
        <time>2016-11-11T15:45:13Z</time>
      </trkpt>
      <trkpt lat="43.29586" lon="5.71298">
        <ele>500.5</ele>
        <time>2016-11-11T15:45:31Z</time>
      </trkpt>
      <trkpt lat="43.29577" lon="5.71248">
        <ele>498.58</ele>
        <time>2016-11-11T15:46:08Z</time>
      </trkpt>
      <trkpt lat="43.29574" lon="5.71209">
        <ele>496.66</ele>
        <time>2016-11-11T15:46:33Z</time>
      </trkpt>
      <trkpt lat="43.29562" lon="5.71164">
        <ele>491.37</ele>
        <time>2016-11-11T15:47:04Z</time>
      </trkpt>
      <trkpt lat="43.29548" lon="5.71115">
        <ele>482.24</ele>
        <time>2016-11-11T15:47:43Z</time>
      </trkpt>
      <trkpt lat="43.29518" lon="5.71086">
        <ele>474.55</ele>
        <time>2016-11-11T15:48:20Z</time>
      </trkpt>
      <trkpt lat="43.29489" lon="5.71101">
        <ele>470.7</ele>
        <time>2016-11-11T15:48:50Z</time>
      </trkpt>
      <trkpt lat="43.29449" lon="5.71118">
        <ele>465.9</ele>
        <time>2016-11-11T15:49:27Z</time>
      </trkpt>
      <trkpt lat="43.2941" lon="5.71126">
        <ele>459.65</ele>
        <time>2016-11-11T15:50:03Z</time>
      </trkpt>
      <trkpt lat="43.29368" lon="5.71129">
        <ele>458.69</ele>
        <time>2016-11-11T15:50:38Z</time>
      </trkpt>
      <trkpt lat="43.29344" lon="5.71154">
        <ele>455.32</ele>
        <time>2016-11-11T15:51:07Z</time>
      </trkpt>
      <trkpt lat="43.29316" lon="5.71182">
        <ele>451.48</ele>
        <time>2016-11-11T15:51:39Z</time>
      </trkpt>
      <trkpt lat="43.29279" lon="5.71169">
        <ele>449.07</ele>
        <time>2016-11-11T15:52:12Z</time>
      </trkpt>
      <trkpt lat="43.29251" lon="5.71151">
        <ele>445.23</ele>
        <time>2016-11-11T15:52:42Z</time>
      </trkpt>
      <trkpt lat="43.2922" lon="5.71166">
        <ele>438.98</ele>
        <time>2016-11-11T15:53:13Z</time>
      </trkpt>
      <trkpt lat="43.29192" lon="5.71174">
        <ele>436.1</ele>
        <time>2016-11-11T15:53:42Z</time>
      </trkpt>
      <trkpt lat="43.29173" lon="5.71191">
        <ele>430.81</ele>
        <time>2016-11-11T15:54:07Z</time>
      </trkpt>
      <trkpt lat="43.29146" lon="5.7119">
        <ele>427.92</ele>
        <time>2016-11-11T15:54:34Z</time>
      </trkpt>
      <trkpt lat="43.29126" lon="5.71176">
        <ele>423.12</ele>
        <time>2016-11-11T15:54:58Z</time>
      </trkpt>
      <trkpt lat="43.29097" lon="5.71159">
        <ele>418.79</ele>
        <time>2016-11-11T15:55:32Z</time>
      </trkpt>
      <trkpt lat="43.29071" lon="5.71154">
        <ele>415.43</ele>
        <time>2016-11-11T15:56:00Z</time>
      </trkpt>
      <trkpt lat="43.29044" lon="5.71159">
        <ele>406.29</ele>
        <time>2016-11-11T15:56:30Z</time>
      </trkpt>
      <trkpt lat="43.2902" lon="5.71166">
        <ele>407.26</ele>
        <time>2016-11-11T15:57:02Z</time>
      </trkpt>
      <trkpt lat="43.28996" lon="5.71182">
        <ele>401.01</ele>
        <time>2016-11-11T15:57:30Z</time>
      </trkpt>
      <trkpt lat="43.28991" lon="5.71167">
        <ele>393.8</ele>
        <time>2016-11-11T15:58:07Z</time>
      </trkpt>
      <trkpt lat="43.29003" lon="5.71138">
        <ele>395.24</ele>
        <time>2016-11-11T15:58:31Z</time>
      </trkpt>
      <trkpt lat="43.29012" lon="5.71103">
        <ele>389.95</ele>
        <time>2016-11-11T15:58:59Z</time>
      </trkpt>
      <trkpt lat="43.29036" lon="5.71074">
        <ele>382.26</ele>
        <time>2016-11-11T15:59:31Z</time>
      </trkpt>
      <trkpt lat="43.29062" lon="5.71052">
        <ele>377.94</ele>
        <time>2016-11-11T16:00:02Z</time>
      </trkpt>
      <trkpt lat="43.29087" lon="5.71048">
        <ele>373.61</ele>
        <time>2016-11-11T16:00:36Z</time>
      </trkpt>
      <trkpt lat="43.29109" lon="5.71038">
        <ele>363.04</ele>
        <time>2016-11-11T16:01:05Z</time>
      </trkpt>
      <trkpt lat="43.29131" lon="5.71027">
        <ele>353.42</ele>
        <time>2016-11-11T16:01:36Z</time>
      </trkpt>
      <trkpt lat="43.29149" lon="5.71001">
        <ele>348.62</ele>
        <time>2016-11-11T16:02:56Z</time>
      </trkpt>
      <trkpt lat="43.29166" lon="5.70978">
        <ele>341.89</ele>
        <time>2016-11-11T16:03:26Z</time>
      </trkpt>
      <trkpt lat="43.29173" lon="5.70951">
        <ele>336.6</ele>
        <time>2016-11-11T16:03:51Z</time>
      </trkpt>
      <trkpt lat="43.29151" lon="5.70952">
        <ele>337.56</ele>
        <time>2016-11-11T16:04:16Z</time>
      </trkpt>
      <trkpt lat="43.2913" lon="5.70966">
        <ele>340.44</ele>
        <time>2016-11-11T16:04:36Z</time>
      </trkpt>
      <trkpt lat="43.291" lon="5.70977">
        <ele>346.69</ele>
        <time>2016-11-11T16:05:04Z</time>
      </trkpt>
      <trkpt lat="43.2907" lon="5.7097">
        <ele>353.9</ele>
        <time>2016-11-11T16:05:33Z</time>
      </trkpt>
      <trkpt lat="43.29045" lon="5.70964">
        <ele>354.38</ele>
        <time>2016-11-11T16:05:56Z</time>
      </trkpt>
      <trkpt lat="43.29022" lon="5.70959">
        <ele>356.31</ele>
        <time>2016-11-11T16:06:20Z</time>
      </trkpt>
      <trkpt lat="43.28987" lon="5.70957">
        <ele>355.83</ele>
        <time>2016-11-11T16:06:54Z</time>
      </trkpt>
      <trkpt lat="43.28958" lon="5.7096">
        <ele>357.27</ele>
        <time>2016-11-11T16:07:22Z</time>
      </trkpt>
      <trkpt lat="43.28935" lon="5.70969">
        <ele>355.83</ele>
        <time>2016-11-11T16:07:42Z</time>
      </trkpt>
      <trkpt lat="43.28911" lon="5.70978">
        <ele>362.55</ele>
        <time>2016-11-11T16:08:03Z</time>
      </trkpt>
      <trkpt lat="43.28879" lon="5.70985">
        <ele>366.88</ele>
        <time>2016-11-11T16:08:42Z</time>
      </trkpt>
      <trkpt lat="43.28849" lon="5.70986">
        <ele>368.8</ele>
        <time>2016-11-11T16:09:10Z</time>
      </trkpt>
      <trkpt lat="43.28818" lon="5.70986">
        <ele>368.8</ele>
        <time>2016-11-11T16:09:43Z</time>
      </trkpt>
      <trkpt lat="43.28793" lon="5.7098">
        <ele>369.28</ele>
        <time>2016-11-11T16:10:09Z</time>
      </trkpt>
      <trkpt lat="43.28767" lon="5.70983">
        <ele>368.8</ele>
        <time>2016-11-11T16:10:34Z</time>
      </trkpt>
      <trkpt lat="43.2873" lon="5.71001">
        <ele>348.13</ele>
        <time>2016-11-11T16:11:00Z</time>
      </trkpt>
      <trkpt lat="43.28702" lon="5.71008">
        <ele>342.37</ele>
        <time>2016-11-11T16:11:34Z</time>
      </trkpt>
      <trkpt lat="43.28677" lon="5.70997">
        <ele>339.48</ele>
        <time>2016-11-11T16:12:00Z</time>
      </trkpt>
      <trkpt lat="43.28653" lon="5.70998">
        <ele>313.05</ele>
        <time>2016-11-11T16:12:27Z</time>
      </trkpt>
      <trkpt lat="43.2863" lon="5.70997">
        <ele>322.66</ele>
        <time>2016-11-11T16:13:00Z</time>
      </trkpt>
      <trkpt lat="43.28605" lon="5.71019">
        <ele>322.66</ele>
        <time>2016-11-11T16:13:28Z</time>
      </trkpt>
      <trkpt lat="43.28589" lon="5.71039">
        <ele>323.14</ele>
        <time>2016-11-11T16:13:59Z</time>
      </trkpt>
      <trkpt lat="43.28564" lon="5.71031">
        <ele>306.8</ele>
        <time>2016-11-11T16:14:34Z</time>
      </trkpt>
      <trkpt lat="43.28536" lon="5.71028">
        <ele>298.15</ele>
        <time>2016-11-11T16:14:59Z</time>
      </trkpt>
      <trkpt lat="43.28512" lon="5.71014">
        <ele>299.11</ele>
        <time>2016-11-11T16:15:27Z</time>
      </trkpt>
      <trkpt lat="43.28491" lon="5.7099">
        <ele>300.07</ele>
        <time>2016-11-11T16:15:55Z</time>
      </trkpt>
      <trkpt lat="43.28462" lon="5.70974">
        <ele>300.07</ele>
        <time>2016-11-11T16:16:23Z</time>
      </trkpt>
      <trkpt lat="43.28429" lon="5.70947">
        <ele>301.51</ele>
        <time>2016-11-11T16:16:55Z</time>
      </trkpt>
      <trkpt lat="43.284" lon="5.70924">
        <ele>297.18</ele>
        <time>2016-11-11T16:17:26Z</time>
      </trkpt>
      <trkpt lat="43.28373" lon="5.70893">
        <ele>291.9</ele>
        <time>2016-11-11T16:18:00Z</time>
      </trkpt>
      <trkpt lat="43.28346" lon="5.70862">
        <ele>291.42</ele>
        <time>2016-11-11T16:18:31Z</time>
      </trkpt>
      <trkpt lat="43.28331" lon="5.70836">
        <ele>295.74</ele>
        <time>2016-11-11T16:18:54Z</time>
      </trkpt>
      <trkpt lat="43.28303" lon="5.7081">
        <ele>288.53</ele>
        <time>2016-11-11T16:19:21Z</time>
      </trkpt>
      <trkpt lat="43.28272" lon="5.70784">
        <ele>269.31</ele>
        <time>2016-11-11T16:19:49Z</time>
      </trkpt>
      <trkpt lat="43.28244" lon="5.70755">
        <ele>260.17</ele>
        <time>2016-11-11T16:20:19Z</time>
      </trkpt>
      <trkpt lat="43.28223" lon="5.70721">
        <ele>256.81</ele>
        <time>2016-11-11T16:20:49Z</time>
      </trkpt>
      <trkpt lat="43.28201" lon="5.70687">
        <ele>252.96</ele>
        <time>2016-11-11T16:21:18Z</time>
      </trkpt>
      <trkpt lat="43.28177" lon="5.70657">
        <ele>251.04</ele>
        <time>2016-11-11T16:21:47Z</time>
      </trkpt>
      <trkpt lat="43.28153" lon="5.70628">
        <ele>255.85</ele>
        <time>2016-11-11T16:22:13Z</time>
      </trkpt>
      <trkpt lat="43.28139" lon="5.70605">
        <ele>258.73</ele>
        <time>2016-11-11T16:22:32Z</time>
      </trkpt>
      <trkpt lat="43.28116" lon="5.70568">
        <ele>258.73</ele>
        <time>2016-11-11T16:23:05Z</time>
      </trkpt>
      <trkpt lat="43.28092" lon="5.70538">
        <ele>254.41</ele>
        <time>2016-11-11T16:23:36Z</time>
      </trkpt>
      <trkpt lat="43.28072" lon="5.70514">
        <ele>258.73</ele>
        <time>2016-11-11T16:24:00Z</time>
      </trkpt>
      <trkpt lat="43.28048" lon="5.70486">
        <ele>256.81</ele>
        <time>2016-11-11T16:24:30Z</time>
      </trkpt>
      <trkpt lat="43.28032" lon="5.70465">
        <ele>255.85</ele>
        <time>2016-11-11T16:24:48Z</time>
      </trkpt>
      <trkpt lat="43.28006" lon="5.70436">
        <ele>249.6</ele>
        <time>2016-11-11T16:25:19Z</time>
      </trkpt>
      <trkpt lat="43.27979" lon="5.70416">
        <ele>235.66</ele>
        <time>2016-11-11T16:25:46Z</time>
      </trkpt>
      <trkpt lat="43.27972" lon="5.70415">
        <ele>225.09</ele>
        <time>2016-11-11T16:26:43Z</time>
      </trkpt>
    </trkseg>
  </trk>
</gpx>